createdAt,value
2017-12-01T00:04:12.698Z,2.70
2017-12-01T00:09:40.825Z,3.57
2017-12-01T00:15:08.966Z,2.60
2017-12-01T00:20:37.104Z,3.40
2017-12-01T00:26:05.225Z,3.53
2017-12-01T00:31:33.381Z,3.07
2017-12-01T00:37:01.523Z,3.00
2017-12-01T00:42:29.673Z,3.53
2017-12-01T00:47:57.880Z,3.00
2017-12-01T00:53:26.039Z,3.70
2017-12-01T00:58:54.230Z,3.47
2017-12-01T01:04:22.376Z,3.33
2017-12-01T01:09:52.198Z,2.87
2017-12-01T01:15:21.123Z,3.17
2017-12-01T01:20:49.267Z,3.50
2017-12-01T01:26:18.189Z,3.90
2017-12-01T01:31:46.945Z,4.20
2017-12-01T01:37:15.324Z,4.10
2017-12-01T01:42:43.494Z,3.90
2017-12-01T01:48:11.944Z,6.73
2017-12-01T01:53:40.090Z,4.73
2017-12-01T01:59:09.477Z,3.87
2017-12-01T02:04:38.394Z,3.80
2017-12-01T02:10:06.931Z,3.33
2017-12-01T02:15:35.376Z,3.87
2017-12-01T02:21:04.860Z,3.13
2017-12-01T02:26:33.043Z,4.43
2017-12-01T02:32:01.958Z,3.30
2017-12-01T02:37:30.123Z,2.57
2017-12-01T02:42:58.265Z,2.57
2017-12-01T02:48:26.423Z,3.00
2017-12-01T02:53:54.598Z,3.07
2017-12-01T02:59:22.754Z,2.90
2017-12-01T03:04:50.886Z,3.73
2017-12-01T03:10:19.803Z,3.30
2017-12-01T03:15:47.950Z,3.30
2017-12-01T03:21:16.879Z,3.63
2017-12-01T03:26:45.005Z,4.10
2017-12-01T03:32:13.931Z,3.03
2017-12-01T03:37:42.129Z,2.97
2017-12-01T03:43:11.006Z,3.13
2017-12-01T03:48:54.315Z,2.30
2017-12-01T03:54:22.747Z,2.97
2017-12-01T03:59:52.149Z,2.33
2017-12-01T04:05:21.063Z,2.60
2017-12-01T04:11:07.867Z,3.47
2017-12-01T04:16:36.010Z,3.00
2017-12-01T04:22:04.168Z,2.57
2017-12-01T04:27:32.304Z,3.07
2017-12-01T04:33:01.221Z,2.57
2017-12-01T04:38:29.354Z,3.27
2017-12-01T04:44:05.038Z,2.70
2017-12-01T04:49:33.191Z,2.80
2017-12-01T04:55:02.098Z,3.07
2017-12-01T05:00:30.234Z,2.73
2017-12-01T05:06:09.922Z,2.70
2017-12-01T05:11:38.862Z,2.87
2017-12-01T05:17:07.999Z,3.37
2017-12-01T05:22:40.120Z,3.47
2017-12-01T05:28:08.361Z,6.07
2017-12-01T05:33:37.323Z,10.30
2017-12-01T05:39:12.168Z,7.43
2017-12-01T05:44:40.297Z,8.63
2017-12-01T05:50:09.232Z,8.20
2017-12-01T05:55:38.990Z,8.90
2017-12-01T06:01:07.159Z,4.60
2017-12-01T06:06:36.131Z,3.20
2017-12-01T06:12:04.262Z,3.00
2017-12-01T06:17:32.411Z,3.33
2017-12-01T06:23:00.603Z,3.33
2017-12-01T06:28:28.722Z,3.13
2017-12-01T06:33:56.912Z,3.03
2017-12-01T06:39:25.050Z,4.53
2017-12-01T06:44:53.968Z,5.00
2017-12-01T06:50:22.103Z,4.40
2017-12-01T06:55:51.021Z,4.70
2017-12-01T07:01:19.179Z,4.30
2017-12-01T07:06:47.338Z,4.10
2017-12-01T07:12:16.243Z,3.43
2017-12-01T07:17:44.382Z,4.10
2017-12-01T07:23:12.531Z,4.50
2017-12-01T07:28:40.682Z,4.00
2017-12-01T07:34:08.828Z,5.60
2017-12-01T07:39:36.961Z,5.20
2017-12-01T07:45:10.675Z,7.70
2017-12-01T07:50:38.823Z,5.60
2017-12-01T07:56:06.972Z,5.17
2017-12-01T08:01:35.107Z,4.40
2017-12-01T08:07:03.268Z,4.17
2017-12-01T08:12:31.407Z,4.40
2017-12-01T08:18:17.521Z,4.10
2017-12-01T08:29:57.952Z,3.93
2017-12-01T08:35:26.863Z,4.23
2017-12-01T08:40:55.919Z,3.83
2017-12-01T08:46:24.961Z,4.00
2017-12-01T08:51:53.862Z,4.00
2017-12-01T08:57:22.006Z,3.53
2017-12-01T09:02:50.144Z,3.53
2017-12-01T09:08:19.029Z,3.20
2017-12-01T09:13:47.176Z,3.13
2017-12-01T09:19:15.319Z,3.30
2017-12-01T09:24:44.225Z,3.13
2017-12-01T09:30:12.346Z,3.27
2017-12-01T09:35:40.484Z,4.20
2017-12-01T09:41:09.408Z,3.40
2017-12-01T09:46:37.528Z,3.13
2017-12-01T09:52:05.656Z,2.90
2017-12-01T09:57:34.545Z,3.30
2017-12-01T10:03:02.719Z,4.30
2017-12-01T10:08:31.638Z,3.80
2017-12-01T10:13:59.764Z,3.93
2017-12-01T10:19:27.923Z,4.83
2017-12-01T10:24:56.087Z,5.43
2017-12-01T10:30:24.234Z,4.70
2017-12-01T10:35:53.140Z,4.10
2017-12-01T10:41:21.266Z,4.50
2017-12-01T10:46:49.414Z,3.73
2017-12-01T10:52:18.359Z,4.37
2017-12-01T10:57:46.466Z,5.13
2017-12-01T11:03:14.599Z,4.90
2017-12-01T11:08:43.509Z,4.90
2017-12-01T11:14:11.633Z,4.30
2017-12-01T11:19:39.776Z,2.50
2017-12-01T11:25:08.681Z,2.00
2017-12-01T11:30:36.805Z,2.47
2017-12-01T11:36:04.943Z,3.40
2017-12-01T11:41:33.851Z,3.43
2017-12-01T11:47:01.999Z,3.47
2017-12-01T11:52:30.898Z,3.50
2017-12-01T11:57:59.042Z,3.90
2017-12-01T12:03:27.223Z,2.93
2017-12-01T12:08:55.350Z,2.73
2017-12-01T12:14:23.481Z,3.17
2017-12-01T12:19:51.609Z,2.80
2017-12-01T12:25:19.758Z,3.37
2017-12-01T12:30:48.654Z,3.00
2017-12-01T12:36:16.798Z,2.97
2017-12-01T12:41:44.919Z,2.37
2017-12-01T12:47:13.250Z,3.50
2017-12-01T12:52:42.163Z,4.90
2017-12-01T12:58:10.320Z,4.50
2017-12-01T13:03:39.205Z,5.77
2017-12-01T13:09:07.358Z,6.13
2017-12-01T13:14:35.486Z,6.20
2017-12-01T13:20:04.387Z,6.93
2017-12-01T13:25:32.521Z,6.67
2017-12-01T13:31:00.655Z,6.80
2017-12-01T13:36:28.839Z,6.70
2017-12-01T13:41:57.051Z,7.87
2017-12-01T13:47:25.208Z,7.93
2017-12-01T13:52:53.347Z,6.90
2017-12-01T13:58:21.489Z,7.90
2017-12-01T14:03:50.415Z,7.80
2017-12-01T14:09:19.322Z,7.60
2017-12-01T14:14:47.454Z,7.00
2017-12-01T14:20:15.568Z,7.23
2017-12-01T14:25:43.704Z,7.60
2017-12-01T14:31:11.848Z,7.80
2017-12-01T14:36:39.996Z,7.33
2017-12-01T14:42:08.128Z,8.80
2017-12-01T14:47:36.254Z,8.43
2017-12-01T14:53:04.389Z,9.37
2017-12-01T14:58:32.527Z,10.27
2017-12-01T15:04:01.432Z,10.33
2017-12-01T15:09:29.583Z,10.80
2017-12-01T15:14:58.491Z,10.23
2017-12-01T15:20:26.660Z,11.17
2017-12-01T15:25:54.905Z,10.43
2017-12-01T15:31:23.040Z,11.10
2017-12-01T15:36:51.183Z,11.07
2017-12-01T15:42:19.317Z,10.53
2017-12-01T15:47:48.259Z,9.00
2017-12-01T15:53:17.147Z,10.07
2017-12-01T15:58:45.289Z,9.27
2017-12-01T16:04:13.444Z,9.23
2017-12-01T16:09:41.570Z,8.37
2017-12-01T16:15:09.720Z,9.57
2017-12-01T16:20:37.859Z,12.30
2017-12-01T16:26:06.000Z,10.80
2017-12-01T16:31:34.196Z,10.93
2017-12-01T16:37:02.318Z,9.83
2017-12-01T16:42:30.452Z,11.30
2017-12-01T16:47:58.603Z,11.93
2017-12-01T16:53:26.763Z,12.63
2017-12-01T16:58:54.922Z,11.47
2017-12-01T17:04:23.087Z,11.33
2017-12-01T17:09:51.223Z,12.20
2017-12-01T17:15:19.364Z,11.83
2017-12-01T17:20:47.517Z,14.30
2017-12-01T17:26:15.663Z,17.10
2017-12-01T17:31:43.822Z,15.70
2017-12-01T17:37:11.985Z,10.60
2017-12-01T17:42:40.111Z,12.13
2017-12-01T17:48:08.258Z,11.97
2017-12-01T17:53:36.386Z,12.60
2017-12-01T17:59:04.523Z,13.20
2017-12-01T18:04:32.694Z,13.67
2017-12-01T18:10:00.844Z,16.20
2017-12-01T18:15:29.061Z,14.00
2017-12-01T18:20:57.216Z,13.83
2017-12-01T18:26:25.531Z,15.90
2017-12-01T18:31:54.455Z,15.57
2017-12-01T18:37:22.708Z,13.77
2017-12-01T18:42:51.619Z,12.77
2017-12-01T18:48:19.858Z,12.27
2017-12-01T18:53:50.881Z,13.33
2017-12-01T18:59:19.022Z,12.70
2017-12-01T19:04:47.170Z,12.47
2017-12-01T19:10:15.300Z,12.93
2017-12-01T19:15:43.436Z,13.43
2017-12-01T19:21:12.331Z,12.60
2017-12-01T19:26:40.468Z,12.67
2017-12-01T19:32:08.600Z,14.63
2017-12-01T19:37:37.520Z,13.10
2017-12-01T19:43:06.549Z,13.10
2017-12-01T19:48:34.705Z,11.77
2017-12-01T19:54:03.595Z,12.50
2017-12-01T19:59:33.692Z,14.00
2017-12-01T20:05:01.820Z,14.00
2017-12-01T20:10:30.767Z,13.90
2017-12-01T20:15:59.711Z,13.77
2017-12-01T20:21:27.890Z,14.73
2017-12-01T20:27:00.247Z,14.10
2017-12-01T20:32:29.171Z,14.97
2017-12-01T20:37:57.330Z,16.00
2017-12-01T20:43:25.497Z,15.17
2017-12-01T20:48:53.735Z,14.57
2017-12-01T20:54:22.662Z,14.87
2017-12-01T20:59:50.828Z,16.50
2017-12-01T21:05:23.531Z,15.10
2017-12-01T21:10:51.689Z,16.30
2017-12-01T21:16:19.857Z,17.67
2017-12-01T21:21:48.764Z,18.97
2017-12-01T21:27:16.905Z,17.43
2017-12-01T21:32:45.072Z,16.70
2017-12-01T21:38:13.214Z,17.70
2017-12-01T21:43:41.377Z,17.50
2017-12-01T21:49:10.295Z,18.90
2017-12-01T21:54:38.487Z,17.07
2017-12-01T22:00:06.626Z,19.70
2017-12-01T22:05:34.781Z,21.50
2017-12-01T22:11:03.690Z,21.37
2017-12-01T22:16:31.839Z,20.23
2017-12-01T22:22:00.005Z,22.90
2017-12-01T22:27:28.172Z,23.47
2017-12-01T22:33:03.121Z,21.57
2017-12-01T22:38:38.096Z,22.83
2017-12-01T22:44:06.267Z,22.07
2017-12-01T22:49:34.422Z,22.97
2017-12-01T22:55:02.562Z,23.07
2017-12-01T23:00:30.719Z,21.57
2017-12-01T23:05:58.908Z,22.73
2017-12-01T23:11:27.079Z,22.50
2017-12-01T23:16:55.220Z,23.33
2017-12-01T23:22:23.385Z,22.57
2017-12-01T23:27:52.315Z,19.90
2017-12-01T23:33:20.457Z,20.17
2017-12-01T23:38:48.630Z,19.20
2017-12-01T23:44:16.800Z,18.97
2017-12-01T23:49:44.940Z,17.30
2017-12-01T23:55:13.090Z,16.73
